createdAt,value
2018-02-22T00:00:47.996Z,21.40
2018-02-22T00:03:15.597Z,21.15
2018-02-22T00:05:43.920Z,21.20
2018-02-22T00:08:11.493Z,21.67
2018-02-22T00:10:39.039Z,22.00
2018-02-22T00:13:06.604Z,22.80
2018-02-22T00:15:34.839Z,20.80
2018-02-22T00:18:03.181Z,22.52
2018-02-22T00:20:30.785Z,23.17
2018-02-22T00:22:59.138Z,21.48
2018-02-22T00:25:26.700Z,19.73
2018-02-22T00:27:54.275Z,23.02
2018-02-22T00:30:22.609Z,20.85
2018-02-22T00:32:50.173Z,22.45
2018-02-22T00:35:17.736Z,22.60
2018-02-22T00:37:45.302Z,22.37
2018-02-22T00:40:12.873Z,21.23
2018-02-22T00:42:40.434Z,23.85
2018-02-22T00:45:08.036Z,21.48
2018-02-22T00:47:35.612Z,22.13
2018-02-22T00:50:03.163Z,21.08
2018-02-22T00:52:30.742Z,24.27
2018-02-22T00:54:58.311Z,21.40
2018-02-22T00:57:25.861Z,23.15
2018-02-22T00:59:53.437Z,20.80
2018-02-22T01:02:20.999Z,21.42
2018-02-22T01:04:48.607Z,19.80
2018-02-22T01:07:16.921Z,20.92
2018-02-22T01:09:44.500Z,22.98
2018-02-22T01:12:12.084Z,21.80
2018-02-22T01:14:39.635Z,21.98
2018-02-22T01:17:07.219Z,20.52
2018-02-22T01:19:35.532Z,22.48
2018-02-22T01:22:03.117Z,20.37
2018-02-22T01:24:30.681Z,20.15
2018-02-22T01:26:58.237Z,19.50
2018-02-22T01:29:25.895Z,23.25
2018-02-22T01:31:53.484Z,20.12
2018-02-22T01:34:21.048Z,23.00
2018-02-22T01:36:49.400Z,22.25
2018-02-22T01:39:16.942Z,19.67
2018-02-22T01:41:44.517Z,20.50
2018-02-22T01:44:12.054Z,21.48
2018-02-22T01:46:39.643Z,19.02
2018-02-22T01:49:07.214Z,20.95
2018-02-22T01:51:34.780Z,21.20
2018-02-22T01:54:02.328Z,20.95
2018-02-22T01:56:29.918Z,19.87
2018-02-22T01:58:58.231Z,21.67
2018-02-22T02:01:25.778Z,20.83
2018-02-22T02:03:53.383Z,20.45
2018-02-22T02:06:20.948Z,21.60
2018-02-22T02:08:48.523Z,22.27
2018-02-22T02:11:16.871Z,19.92
2018-02-22T02:13:44.471Z,21.37
2018-02-22T02:16:12.793Z,20.17
2018-02-22T02:18:40.349Z,18.45
2018-02-22T02:21:07.910Z,19.87
2018-02-22T02:23:35.541Z,20.85
2018-02-22T02:26:03.864Z,18.33
2018-02-22T02:28:31.429Z,18.67
2018-02-22T02:30:58.965Z,19.52
2018-02-22T02:33:26.539Z,19.02
2018-02-22T02:35:54.103Z,19.95
2018-02-22T02:38:21.753Z,18.23
2018-02-22T02:40:49.346Z,18.02
2018-02-22T02:43:16.877Z,20.55
2018-02-22T02:45:44.449Z,18.42
2018-02-22T02:48:12.001Z,18.37
2018-02-22T02:50:39.561Z,20.30
2018-02-22T02:53:07.105Z,18.05
2018-02-22T02:55:34.677Z,19.83
2018-02-22T02:58:02.285Z,19.65
2018-02-22T03:00:30.627Z,21.52
2018-02-22T03:02:58.188Z,18.87
2018-02-22T03:05:25.729Z,18.08
2018-02-22T03:07:53.361Z,17.77
2018-02-22T03:10:21.679Z,20.52
2018-02-22T03:12:49.275Z,17.30
2018-02-22T03:15:16.812Z,18.73
2018-02-22T03:17:44.386Z,19.87
2018-02-22T03:20:11.934Z,18.67
2018-02-22T03:22:39.489Z,19.95
2018-02-22T03:25:07.071Z,18.27
2018-02-22T03:27:35.391Z,19.30
2018-02-22T03:30:02.958Z,17.20
2018-02-22T03:32:30.533Z,18.20
2018-02-22T03:34:58.098Z,18.05
2018-02-22T03:37:25.674Z,17.75
2018-02-22T03:39:53.256Z,19.35
2018-02-22T03:42:21.482Z,18.80
2018-02-22T03:44:49.050Z,19.73
2018-02-22T03:47:18.445Z,18.87
2018-02-22T03:49:46.038Z,16.08
2018-02-22T03:52:13.600Z,17.37
2018-02-22T03:54:41.160Z,18.50
2018-02-22T03:57:08.724Z,20.10
2018-02-22T03:59:37.786Z,16.83
2018-02-22T04:02:05.372Z,19.23
2018-02-22T04:04:32.929Z,18.02
2018-02-22T04:07:00.491Z,17.52
2018-02-22T04:09:28.049Z,18.23
2018-02-22T04:11:55.599Z,16.73
2018-02-22T04:14:23.202Z,17.23
2018-02-22T04:16:51.546Z,16.85
2018-02-22T04:19:19.108Z,17.00
2018-02-22T04:21:46.680Z,17.10
2018-02-22T04:24:14.239Z,16.77
2018-02-22T04:26:41.833Z,16.67
2018-02-22T04:29:10.193Z,16.33
2018-02-22T04:31:38.545Z,17.27
2018-02-22T04:34:06.097Z,17.17
2018-02-22T04:36:33.673Z,15.25
2018-02-22T04:39:01.222Z,15.25
2018-02-22T04:41:28.798Z,17.75
2018-02-22T04:43:57.129Z,17.00
2018-02-22T04:46:24.677Z,16.15
2018-02-22T04:48:52.262Z,16.92
2018-02-22T04:51:19.818Z,16.25
2018-02-22T04:53:47.434Z,16.87
2018-02-22T04:56:15.794Z,17.20
2018-02-22T04:58:44.155Z,16.58
2018-02-22T05:01:11.702Z,16.40
2018-02-22T05:03:39.328Z,16.30
2018-02-22T05:06:07.651Z,17.87
2018-02-22T05:08:36.117Z,16.50
2018-02-22T05:11:03.660Z,15.30
2018-02-22T05:13:31.217Z,15.48
2018-02-22T05:15:58.805Z,16.62
2018-02-22T05:18:26.386Z,16.52
2018-02-22T05:20:53.948Z,15.43
2018-02-22T05:23:21.517Z,16.62
2018-02-22T05:25:49.095Z,15.77
2018-02-22T05:28:17.428Z,14.98
2018-02-22T05:30:44.977Z,16.23
2018-02-22T05:33:13.005Z,14.30
2018-02-22T05:35:41.350Z,16.75
2018-02-22T05:38:08.950Z,16.10
2018-02-22T05:40:37.289Z,17.60
2018-02-22T05:43:04.832Z,18.35
2018-02-22T05:45:32.424Z,14.95
2018-02-22T05:48:01.492Z,15.10
2018-02-22T05:50:29.110Z,17.42
2018-02-22T05:52:57.466Z,17.85
2018-02-22T05:55:25.052Z,18.33
2018-02-22T05:57:52.647Z,16.80
2018-02-22T06:00:20.213Z,17.27
2018-02-22T06:02:47.777Z,17.87
2018-02-22T06:05:15.381Z,17.00
2018-02-22T06:07:43.712Z,18.10
2018-02-22T06:10:11.291Z,19.12
2018-02-22T06:12:38.893Z,17.35
2018-02-22T06:15:07.242Z,18.40
2018-02-22T06:17:34.841Z,17.30
2018-02-22T06:20:02.428Z,19.70
2018-02-22T06:22:29.995Z,16.77
2018-02-22T06:24:57.568Z,19.17
2018-02-22T06:27:25.260Z,20.00
2018-02-22T06:29:52.845Z,18.10
2018-02-22T06:32:22.246Z,17.50
2018-02-22T06:34:49.821Z,17.65
2018-02-22T06:37:17.408Z,18.05
2018-02-22T06:39:44.970Z,17.80
2018-02-22T06:42:13.396Z,17.50
2018-02-22T06:44:41.736Z,20.35
2018-02-22T06:47:09.293Z,19.37
2018-02-22T06:49:36.916Z,18.40
2018-02-22T06:52:04.468Z,16.48
2018-02-22T06:54:32.069Z,16.48
2018-02-22T06:56:59.627Z,18.37
2018-02-22T06:59:27.198Z,17.75
2018-02-22T07:01:54.757Z,18.65
2018-02-22T07:04:22.368Z,19.67
2018-02-22T07:06:49.942Z,18.08
2018-02-22T07:09:17.492Z,20.20
2018-02-22T07:11:45.080Z,21.30
2018-02-22T07:14:12.640Z,23.60
2018-02-22T07:16:40.267Z,23.23
2018-02-22T07:19:07.829Z,18.20
2018-02-22T07:21:36.214Z,25.10
2018-02-22T07:24:03.762Z,20.75
2018-02-22T07:26:32.115Z,19.75
2018-02-22T07:28:59.672Z,19.08
2018-02-22T07:31:28.037Z,18.70
2018-02-22T07:33:55.622Z,20.02
2018-02-22T07:36:23.240Z,19.27
2018-02-22T07:38:50.794Z,20.12
2018-02-22T07:41:18.365Z,18.60
2018-02-22T07:43:45.965Z,20.92
2018-02-22T07:46:14.832Z,17.00
2018-02-22T07:48:42.414Z,18.20
2018-02-22T07:51:09.960Z,19.77
2018-02-22T07:53:37.518Z,16.92
2018-02-22T07:56:05.144Z,20.45
2018-02-22T07:58:32.720Z,17.48
2018-02-22T08:01:00.276Z,16.73
2018-02-22T08:03:27.866Z,18.42
2018-02-22T08:05:55.440Z,16.83
2018-02-22T08:08:23.761Z,16.23
2018-02-22T08:10:51.363Z,17.05
2018-02-22T08:13:18.956Z,17.42
2018-02-22T08:15:46.543Z,18.65
2018-02-22T08:18:14.132Z,18.30
2018-02-22T08:20:41.706Z,19.87
2018-02-22T08:23:09.287Z,16.35
2018-02-22T08:25:36.877Z,16.70
2018-02-22T08:28:04.441Z,16.50
2018-02-22T08:30:32.013Z,18.48
2018-02-22T08:32:59.601Z,18.10
2018-02-22T08:35:27.198Z,16.58
2018-02-22T08:37:55.538Z,18.48
2018-02-22T08:40:23.143Z,16.52
2018-02-22T08:42:51.477Z,18.62
2018-02-22T08:45:19.085Z,17.50
2018-02-22T08:47:46.777Z,18.45
2018-02-22T08:50:14.353Z,18.10
2018-02-22T08:52:41.954Z,17.05
2018-02-22T08:55:10.288Z,19.27
2018-02-22T08:57:37.871Z,17.37
2018-02-22T09:00:05.453Z,18.08
2018-02-22T09:02:33.821Z,17.48
2018-02-22T09:05:01.403Z,17.05
2018-02-22T09:07:29.729Z,17.20
2018-02-22T09:09:57.343Z,17.42
2018-02-22T09:12:25.740Z,18.75
2018-02-22T09:14:53.368Z,15.32
2018-02-22T09:17:21.686Z,17.35
2018-02-22T09:19:49.254Z,18.25
2018-02-22T09:22:16.810Z,17.85
2018-02-22T09:24:44.370Z,16.75
2018-02-22T09:27:11.930Z,16.55
2018-02-22T09:29:39.507Z,17.08
2018-02-22T09:32:07.076Z,16.37
2018-02-22T09:34:34.625Z,17.25
2018-02-22T09:37:02.197Z,17.50
2018-02-22T09:39:29.744Z,16.20
2018-02-22T09:41:57.319Z,16.87
2018-02-22T09:44:24.890Z,17.30
2018-02-22T09:46:52.522Z,16.08
2018-02-22T09:49:20.690Z,16.00
2018-02-22T09:51:48.293Z,14.45
2018-02-22T09:54:15.849Z,16.95
2018-02-22T09:56:43.404Z,14.27
2018-02-22T09:59:11.041Z,15.18
2018-02-22T10:01:38.712Z,15.02
2018-02-22T10:04:06.278Z,14.05
2018-02-22T10:06:33.881Z,15.88
2018-02-22T10:09:02.215Z,15.23
2018-02-22T10:11:29.770Z,15.07
2018-02-22T10:13:57.341Z,14.10
2018-02-22T10:16:24.908Z,14.23
2018-02-22T10:18:52.487Z,14.63
2018-02-22T10:21:20.027Z,13.38
2018-02-22T10:23:47.594Z,13.25
2018-02-22T10:26:15.150Z,13.50
2018-02-22T10:28:42.723Z,12.75
2018-02-22T10:31:10.279Z,11.63
2018-02-22T10:33:38.642Z,12.80
2018-02-22T10:36:06.190Z,12.90
2018-02-22T10:38:33.781Z,13.10
2018-02-22T10:41:01.330Z,12.70
2018-02-22T10:43:28.875Z,15.23
2018-02-22T10:45:56.434Z,13.07
2018-02-22T10:48:23.999Z,14.98
2018-02-22T10:50:51.561Z,13.75
2018-02-22T10:53:19.104Z,13.62
2018-02-22T10:55:46.677Z,13.73
2018-02-22T10:58:14.224Z,12.70
2018-02-22T11:00:47.471Z,14.15
2018-02-22T11:03:15.778Z,14.05
2018-02-22T11:05:43.354Z,12.82
2018-02-22T11:08:10.904Z,12.88
2018-02-22T11:10:38.507Z,13.52
2018-02-22T11:13:06.079Z,13.93
2018-02-22T11:15:34.403Z,13.55
2018-02-22T11:18:01.986Z,13.85
2018-02-22T11:20:29.578Z,13.95
2018-02-22T11:22:57.919Z,15.30
2018-02-22T11:25:25.483Z,13.38
2018-02-22T11:27:53.046Z,14.23
2018-02-22T11:30:20.604Z,14.38
2018-02-22T11:32:48.168Z,13.80
2018-02-22T11:35:16.495Z,14.20
2018-02-22T11:37:44.078Z,14.20
2018-02-22T11:40:11.641Z,12.52
2018-02-22T11:42:39.200Z,13.20
2018-02-22T11:45:06.746Z,15.48
2018-02-22T11:47:34.312Z,14.25
2018-02-22T11:50:01.896Z,15.60
2018-02-22T11:52:29.459Z,14.68
2018-02-22T11:54:57.050Z,14.43
2018-02-22T11:57:24.591Z,15.73
2018-02-22T11:59:52.176Z,14.35
2018-02-22T12:02:20.523Z,16.17
2018-02-22T12:04:48.457Z,14.75
2018-02-22T12:07:15.999Z,15.30
2018-02-22T12:09:43.609Z,17.00
2018-02-22T12:12:11.173Z,15.82
2018-02-22T12:14:38.791Z,16.70
2018-02-22T12:17:06.350Z,15.27
2018-02-22T12:19:33.893Z,15.85
2018-02-22T12:22:02.235Z,14.50
2018-02-22T12:24:29.788Z,14.85
2018-02-22T12:26:57.382Z,13.55
2018-02-22T12:29:25.740Z,13.13
2018-02-22T12:31:53.333Z,14.60
2018-02-22T12:34:21.661Z,15.02
2018-02-22T12:36:49.226Z,13.52
2018-02-22T12:39:16.785Z,14.35
2018-02-22T12:41:44.342Z,15.20
2018-02-22T12:44:11.913Z,15.10
2018-02-22T12:46:39.468Z,12.55
2018-02-22T12:49:07.025Z,12.32
2018-02-22T12:51:34.576Z,12.20
2018-02-22T12:54:02.142Z,13.43
2018-02-22T12:56:29.705Z,11.05
2018-02-22T12:58:57.282Z,11.18
2018-02-22T13:01:24.840Z,11.68
2018-02-22T13:03:52.402Z,11.80
2018-02-22T13:06:19.965Z,11.90
2018-02-22T13:08:47.559Z,10.73
2018-02-22T13:11:15.893Z,11.70
2018-02-22T13:13:43.452Z,11.93
2018-02-22T13:16:11.018Z,10.73
2018-02-22T13:18:39.337Z,11.85
2018-02-22T13:21:07.668Z,14.13
2018-02-22T13:23:35.222Z,12.18
2018-02-22T13:26:02.788Z,12.20
2018-02-22T13:28:30.337Z,12.07
2018-02-22T13:30:57.883Z,11.90
2018-02-22T13:33:37.305Z,13.18
2018-02-22T13:36:04.853Z,12.43
2018-02-22T13:38:44.460Z,12.35
2018-02-22T13:41:12.033Z,12.48
2018-02-22T13:43:40.367Z,12.45
2018-02-22T13:46:07.932Z,11.30
2018-02-22T13:48:47.436Z,11.45
2018-02-22T13:51:14.992Z,12.07
2018-02-22T13:53:42.578Z,12.20
2018-02-22T13:56:22.119Z,10.88
2018-02-22T13:58:49.708Z,11.50
2018-02-22T14:01:29.175Z,8.85
2018-02-22T14:03:57.504Z,11.40
2018-02-22T14:06:25.055Z,11.30
2018-02-22T14:08:53.561Z,10.90
2018-02-22T14:11:21.134Z,8.82
2018-02-22T14:13:48.681Z,11.50
2018-02-22T14:16:16.271Z,12.80
2018-02-22T14:18:44.606Z,11.00
2018-02-22T14:21:12.189Z,10.50
2018-02-22T14:23:39.754Z,12.50
2018-02-22T14:26:07.308Z,11.25
2018-02-22T14:28:34.875Z,10.60
2018-02-22T14:31:02.450Z,12.43
2018-02-22T14:33:30.027Z,11.45
2018-02-22T14:35:58.336Z,11.50
2018-02-22T14:38:25.917Z,10.85
2018-02-22T14:40:53.490Z,10.13
2018-02-22T14:43:21.046Z,10.85
2018-02-22T14:45:48.646Z,11.60
2018-02-22T14:48:16.965Z,10.60
2018-02-22T14:50:44.532Z,12.25
2018-02-22T14:53:12.096Z,10.25
2018-02-22T14:55:39.669Z,11.10
2018-02-22T14:58:08.765Z,10.88
2018-02-22T15:00:36.306Z,11.85
2018-02-22T15:03:03.874Z,10.43
2018-02-22T15:05:31.471Z,10.80
2018-02-22T15:07:59.802Z,10.90
2018-02-22T15:10:27.381Z,11.55
2018-02-22T15:12:54.921Z,9.80
2018-02-22T15:15:22.491Z,10.55
2018-02-22T15:17:50.053Z,9.57
2018-02-22T15:20:17.612Z,9.65
2018-02-22T15:22:45.167Z,11.23
2018-02-22T15:25:12.718Z,10.98
2018-02-22T15:27:40.318Z,11.05
2018-02-22T15:30:07.861Z,11.48
2018-02-22T15:32:35.448Z,10.35
2018-02-22T15:35:03.793Z,10.15
2018-02-22T15:37:31.363Z,10.80
2018-02-22T15:39:58.907Z,12.95
2018-02-22T15:42:26.477Z,10.13
2018-02-22T15:44:54.045Z,10.02
2018-02-22T15:47:21.611Z,11.10
2018-02-22T15:49:49.159Z,10.40
2018-02-22T15:52:16.736Z,10.70
2018-02-22T15:54:44.281Z,11.00
2018-02-22T15:57:11.887Z,9.75
2018-02-22T15:59:39.478Z,10.70
2018-02-22T16:02:07.006Z,8.70
2018-02-22T16:04:34.582Z,10.27
2018-02-22T16:07:02.131Z,10.27
2018-02-22T16:09:29.706Z,10.52
2018-02-22T16:11:57.301Z,9.48
2018-02-22T16:14:24.848Z,10.63
2018-02-22T16:16:52.416Z,10.68
2018-02-22T16:19:19.972Z,9.52
2018-02-22T16:21:47.540Z,9.40
2018-02-22T16:24:16.951Z,9.63
2018-02-22T16:26:44.501Z,8.95
2018-02-22T16:29:12.073Z,8.98
2018-02-22T16:31:39.640Z,9.70
2018-02-22T16:34:07.194Z,9.65
2018-02-22T16:36:34.779Z,9.88
2018-02-22T16:39:03.097Z,8.70
2018-02-22T16:41:30.663Z,10.85
2018-02-22T16:43:58.315Z,9.15
2018-02-22T16:46:25.889Z,9.55
2018-02-22T16:48:53.498Z,9.90
2018-02-22T16:51:21.042Z,9.45
2018-02-22T16:53:48.617Z,10.07
2018-02-22T16:56:16.994Z,10.27
2018-02-22T16:58:45.316Z,9.43
2018-02-22T17:01:12.891Z,11.02
2018-02-22T17:03:40.519Z,9.95
2018-02-22T17:06:08.061Z,9.32
2018-02-22T17:08:36.416Z,7.28
2018-02-22T17:11:03.963Z,8.82
2018-02-22T17:13:31.744Z,9.98
2018-02-22T17:16:00.007Z,8.50
2018-02-22T17:18:27.578Z,9.68
2018-02-22T17:20:55.172Z,10.88
2018-02-22T17:23:22.788Z,8.75
2018-02-22T17:25:56.059Z,8.23
2018-02-22T17:28:29.258Z,10.45
2018-02-22T17:31:02.518Z,9.20
2018-02-22T17:33:30.102Z,8.88
2018-02-22T17:36:04.437Z,10.30
2018-02-22T17:38:49.928Z,9.15
2018-02-22T17:41:17.524Z,10.43
2018-02-22T17:43:45.856Z,8.65
2018-02-22T17:46:13.420Z,8.45
2018-02-22T17:48:41.034Z,8.82
2018-02-22T17:51:08.605Z,7.70
2018-02-22T17:53:36.177Z,8.10
2018-02-22T17:56:03.723Z,9.00
2018-02-22T17:58:31.328Z,10.02
2018-02-22T18:00:58.941Z,8.77
2018-02-22T18:03:26.522Z,8.10
2018-02-22T18:05:54.160Z,9.57
2018-02-22T18:08:21.750Z,10.65
2018-02-22T18:10:49.334Z,10.50
2018-02-22T18:13:18.445Z,9.20
2018-02-22T18:15:46.021Z,9.50
2018-02-22T18:18:14.366Z,8.85
2018-02-22T18:20:41.913Z,8.68
2018-02-22T18:23:09.545Z,9.65
2018-02-22T18:25:37.097Z,8.35
2018-02-22T18:28:04.710Z,9.55
2018-02-22T18:30:32.276Z,8.35
2018-02-22T18:32:59.845Z,9.18
2018-02-22T18:35:28.244Z,8.48
2018-02-22T18:37:59.572Z,9.68
2018-02-22T18:40:32.824Z,9.10
2018-02-22T18:43:00.416Z,9.30
2018-02-22T18:45:28.012Z,8.60
2018-02-22T18:47:56.346Z,8.40
2018-02-22T18:50:23.916Z,8.13
2018-02-22T18:52:51.512Z,8.10
2018-02-22T18:55:19.884Z,8.98
2018-02-22T18:57:49.489Z,8.98
2018-02-22T19:00:17.920Z,8.95
2018-02-22T19:02:45.476Z,8.88
2018-02-22T19:05:13.072Z,8.60
2018-02-22T19:07:40.799Z,7.65
2018-02-22T19:10:08.380Z,9.00
2018-02-22T19:12:37.544Z,8.35
2018-02-22T19:15:05.383Z,8.30
2018-02-22T19:17:33.733Z,8.32
2018-02-22T19:20:01.315Z,8.48
2018-02-22T19:22:29.675Z,9.18
2018-02-22T19:24:58.043Z,9.15
2018-02-22T19:27:25.633Z,9.48
2018-02-22T19:29:53.977Z,8.13
2018-02-22T19:32:21.570Z,7.82
2018-02-22T19:34:49.941Z,8.93
2018-02-22T19:37:17.530Z,9.00
2018-02-22T19:39:45.145Z,10.40
2018-02-22T19:42:12.728Z,10.55
2018-02-22T19:44:41.150Z,9.85
2018-02-22T19:47:08.767Z,8.82
2018-02-22T19:49:37.310Z,8.13
2018-02-22T19:52:04.883Z,8.60
2018-02-22T19:54:32.454Z,8.23
2018-02-22T19:57:00.045Z,7.57
2018-02-22T19:59:28.391Z,7.72
2018-02-22T20:01:55.968Z,6.10
2018-02-22T20:04:23.522Z,7.50
2018-02-22T20:06:51.133Z,7.28
2018-02-22T20:09:18.812Z,7.00
2018-02-22T20:11:46.421Z,8.02
2018-02-22T20:14:14.236Z,7.18
2018-02-22T20:16:42.755Z,7.15
2018-02-22T20:19:10.308Z,6.40
2018-02-22T20:21:37.936Z,7.65
2018-02-22T20:24:05.539Z,6.40
2018-02-22T20:26:33.981Z,7.40
2018-02-22T20:29:01.569Z,7.30
2018-02-22T20:31:29.124Z,6.80
2018-02-22T20:33:57.641Z,8.10
2018-02-22T20:36:26.065Z,6.45
2018-02-22T20:38:53.657Z,6.43
2018-02-22T20:41:21.248Z,6.90
2018-02-22T20:43:49.576Z,6.78
2018-02-22T20:46:17.257Z,6.85
2018-02-22T20:48:44.814Z,7.47
2018-02-22T20:51:17.304Z,7.93
2018-02-22T20:53:47.382Z,6.37
2018-02-22T20:56:14.972Z,6.70
2018-02-22T20:58:42.581Z,7.55
2018-02-22T21:01:10.182Z,7.35
2018-02-22T21:03:41.555Z,6.57
2018-02-22T21:06:09.154Z,6.72
2018-02-22T21:08:36.735Z,7.05
2018-02-22T21:11:04.320Z,6.50
2018-02-22T21:13:31.915Z,6.53
2018-02-22T21:16:00.259Z,7.60
2018-02-22T21:18:27.829Z,7.55
2018-02-22T21:20:55.417Z,7.47
2018-02-22T21:23:23.728Z,7.55
2018-02-22T21:25:51.311Z,8.40
2018-02-22T21:28:18.871Z,7.35
2018-02-22T21:30:46.480Z,8.15
2018-02-22T21:33:14.812Z,6.80
2018-02-22T21:35:42.377Z,6.75
2018-02-22T21:38:09.968Z,7.25
2018-02-22T21:40:38.297Z,6.47
2018-02-22T21:43:05.865Z,8.15
2018-02-22T21:45:33.446Z,8.23
2018-02-22T21:48:01.011Z,7.10
2018-02-22T21:50:28.564Z,7.80
2018-02-22T21:52:56.895Z,7.93
2018-02-22T21:55:24.460Z,7.12
2018-02-22T21:57:52.037Z,6.72
2018-02-22T22:00:19.618Z,7.97
2018-02-22T22:02:47.206Z,7.60
2018-02-22T22:05:15.560Z,7.57
2018-02-22T22:07:43.106Z,6.60
2018-02-22T22:10:10.687Z,6.87
2018-02-22T22:12:38.273Z,8.70
2018-02-22T22:15:06.610Z,6.68
2018-02-22T22:17:34.187Z,6.50
2018-02-22T22:20:02.627Z,6.75
2018-02-22T22:22:30.198Z,7.85
2018-02-22T22:24:57.769Z,6.65
2018-02-22T22:27:25.326Z,6.45
2018-02-22T22:29:52.928Z,6.30
2018-02-22T22:32:21.270Z,6.93
2018-02-22T22:34:48.843Z,6.25
2018-02-22T22:37:16.397Z,7.20
2018-02-22T22:39:44.029Z,6.80
2018-02-22T22:42:11.575Z,5.95
2018-02-22T22:44:39.143Z,7.60
2018-02-22T22:47:06.692Z,8.23
2018-02-22T22:49:34.350Z,9.80
2018-02-22T22:52:01.932Z,7.47
2018-02-22T22:54:29.491Z,6.50
2018-02-22T22:56:57.071Z,7.57
2018-02-22T22:59:24.615Z,7.20
2018-02-22T23:01:52.171Z,7.60
2018-02-22T23:04:19.734Z,6.85
2018-02-22T23:06:47.328Z,7.12
2018-02-22T23:09:14.889Z,7.18
2018-02-22T23:11:42.489Z,6.85
2018-02-22T23:14:10.085Z,8.00
2018-02-22T23:16:37.692Z,5.82
2018-02-22T23:19:06.001Z,6.50
2018-02-22T23:21:33.592Z,6.85
2018-02-22T23:24:01.149Z,6.97
2018-02-22T23:26:28.712Z,5.35
2018-02-22T23:28:56.273Z,7.30
2018-02-22T23:31:23.832Z,7.72
2018-02-22T23:33:51.400Z,7.40
2018-02-22T23:36:18.972Z,6.97
2018-02-22T23:38:50.284Z,7.82
2018-02-22T23:41:34.530Z,7.28
2018-02-22T23:44:02.104Z,6.40
2018-02-22T23:46:29.646Z,6.57
2018-02-22T23:48:57.214Z,6.20
2018-02-22T23:51:24.760Z,5.80
2018-02-22T23:53:52.328Z,6.95
2018-02-22T23:56:19.917Z,6.60
2018-02-22T23:58:47.489Z,5.97
